Weather History for Glenwood, MN

Change the Weather History Date:

Wednesday, March 28, 2012

  Actual Average Record
Temperature  
Mean Temperature 42 °F -  
Max Temperature 48 °F 45 °F 111 °F (1998)
Min Temperature 35 °F 24 °F -1 °F (1969)
Degree Days  
Heating Degree Days 24    
Moisture  
Dew Point 30 °F    
Average Humidity 67    
Maximum Humidity 81    
Minimum Humidity 50    
Precipitation  
Precipitation 0.00 in - - ()
Sea Level Pressure  
Sea Level Pressure 29.99 in    
Wind  
Wind Speed 15 mph (NW)    
Max Wind Speed 26 mph    
Max Gust Speed 33 mph    
Visibility 10 miles    
Events      
Averages and records for this station are not official NWS values.
T = Trace of Precipitation, MM = Missing Value Source: NWS Daily Summary

Daily Weather History Graph

Daily Weather History Graph

Search for Another Location

Airport:

Trip Planner

Search our weather history database for the weather conditions in past years. The results will help you decide how hot, cold, wet, or windy it might be!

Date:

Astronomy

Mar. 28, 2012 Rise Set
Actual Time 7:08 AM CDT 7:45 PM CDT
Civil Twilight 6:38 AM CDT 8:14 PM CDT
Nautical Twilight 6:02 AM CDT 8:50 PM CDT
Astronomical Twilight 5:26 AM CDT 9:27 PM CDT
Moon 10:10 AM CDT (3/28) 1:03 AM CDT (3/28)
Length of Visible Light 13h 36m
Length of Day
12h 36m
Waxing Crescent, 30% of the Moon is Illuminated
Mar 28
Waxing Crescent
Mar 30
First Quarter
Apr 6
Full
Apr 13
Last Quarter
Apr 21
New

Hourly Weather History & Observations

Time (CDT) Temp. Windchill Dew Point Humidity Pressure Visibility Wind Dir Wind Speed Gust Speed Precip Events Conditions
12:14 AM 42.8 °F 34.5 °F 33.8 °F 70% 29.85 in 10.0 mi West 18.4 mph 21.9 mph N/A   Overcast
12:33 AM 42.8 °F 34.3 °F 33.8 °F 70% 29.86 in 10.0 mi WNW 19.6 mph 27.6 mph N/A   Overcast
12:53 AM 41.0 °F 30.5 °F 33.8 °F 76% 29.86 in 10.0 mi WNW 26.5 mph 33.4 mph N/A   Mostly Cloudy
1:13 AM 39.2 °F 28.7 °F 32.0 °F 75% 29.86 in 10.0 mi WNW 23.0 mph 28.8 mph N/A   Scattered Clouds
1:33 AM 39.2 °F 29.3 °F 32.0 °F 75% 29.86 in 10.0 mi WNW 20.7 mph 27.6 mph N/A   Mostly Cloudy
1:54 AM 39.2 °F 29.6 °F 32.0 °F 75% 29.87 in 10.0 mi WNW 19.6 mph 26.5 mph N/A   Overcast
2:14 AM 39.2 °F 29.6 °F 30.2 °F 70% 29.88 in 10.0 mi NW 19.6 mph 26.5 mph N/A   Overcast
2:34 AM 39.2 °F 29.3 °F 30.2 °F 70% 29.89 in 10.0 mi WNW 20.7 mph 25.3 mph N/A   Overcast
2:53 AM 39.2 °F 30.5 °F 30.2 °F 70% 29.89 in 10.0 mi WNW 16.1 mph 25.3 mph N/A   Overcast
3:14 AM 39.2 °F 29.8 °F 30.2 °F 70% 29.89 in 10.0 mi WNW 18.4 mph - N/A   Mostly Cloudy
3:33 AM 37.4 °F 28.2 °F 30.2 °F 75% 29.90 in 10.0 mi WNW 16.1 mph 21.9 mph N/A   Mostly Cloudy
3:54 AM 37.4 °F 28.5 °F 30.2 °F 75% 29.90 in 10.0 mi WNW 15.0 mph 24.2 mph N/A   Mostly Cloudy
4:14 AM 37.4 °F 28.5 °F 30.2 °F 75% 29.90 in 10.0 mi WNW 15.0 mph - N/A   Overcast
4:33 AM 37.4 °F 28.9 °F 30.2 °F 75% 29.91 in 10.0 mi NW 13.8 mph 17.3 mph N/A   Overcast
4:54 AM 37.4 °F 29.3 °F 30.2 °F 75% 29.91 in 10.0 mi NW 12.7 mph - N/A   Scattered Clouds
5:13 AM 35.6 °F 27.1 °F 30.2 °F 81% 29.92 in 10.0 mi NW 12.7 mph - N/A   Clear
5:34 AM 35.6 °F 27.5 °F 28.4 °F 75% 29.92 in 10.0 mi NW 11.5 mph 19.6 mph N/A   Clear
5:54 AM 35.6 °F 27.1 °F 28.4 °F 75% 29.93 in 10.0 mi WNW 12.7 mph - N/A   Clear
6:13 AM 35.6 °F 26.6 °F 30.2 °F 81% 29.94 in 10.0 mi NW 13.8 mph - N/A   Mostly Cloudy
6:33 AM 35.6 °F 27.5 °F 30.2 °F 81% 29.95 in 10.0 mi NW 11.5 mph - N/A   Overcast
6:53 AM 37.4 °F 30.8 °F 30.2 °F 75% 29.96 in 10.0 mi NW 9.2 mph 13.8 mph N/A   Overcast
7:14 AM 37.4 °F 28.5 °F 30.2 °F 75% 29.97 in 10.0 mi NW 15.0 mph - N/A   Overcast
7:33 AM 37.4 °F 29.8 °F 30.2 °F 75% 29.98 in 10.0 mi NW 11.5 mph - N/A   Overcast
7:54 AM 37.4 °F 30.8 °F 30.2 °F 75% 29.99 in 10.0 mi WNW 9.2 mph - N/A   Overcast
8:13 AM 37.4 °F 29.3 °F 30.2 °F 75% 30.00 in 10.0 mi WNW 12.7 mph - N/A   Overcast
8:34 AM 37.4 °F 29.3 °F 30.2 °F 75% 30.01 in 10.0 mi WNW 12.7 mph 16.1 mph N/A   Overcast
8:54 AM 37.4 °F 29.3 °F 30.2 °F 75% 30.02 in 10.0 mi West 12.7 mph - N/A   Overcast
9:13 AM 39.2 °F 32.0 °F 30.2 °F 70% 30.02 in 10.0 mi WNW 11.5 mph - N/A   Overcast
9:34 AM 39.2 °F 32.0 °F 30.2 °F 70% 30.03 in 10.0 mi West 11.5 mph - N/A   Overcast
9:53 AM 39.2 °F 31.2 °F 28.4 °F 65% 30.04 in 10.0 mi West 13.8 mph - N/A   Overcast
10:14 AM 39.2 °F 31.6 °F 30.2 °F 70% 30.05 in 10.0 mi West 12.7 mph 16.1 mph N/A   Overcast
10:33 AM 37.4 °F 29.3 °F 30.2 °F 75% 30.06 in 10.0 mi WNW 12.7 mph - N/A   Overcast
10:53 AM 37.4 °F 28.5 °F 28.4 °F 70% 30.07 in 10.0 mi WNW 15.0 mph - N/A   Overcast
11:13 AM 39.2 °F 31.2 °F 30.2 °F 70% 30.07 in 10.0 mi WNW 13.8 mph - N/A   Overcast
11:34 AM 39.2 °F 31.6 °F 30.2 °F 70% 30.08 in 10.0 mi WNW 12.7 mph 19.6 mph N/A   Overcast
11:53 AM 39.2 °F 32.0 °F 28.4 °F 65% 30.07 in 10.0 mi NW 11.5 mph 18.4 mph N/A   Overcast
12:14 PM 41.0 °F 34.3 °F 30.2 °F 65% 30.07 in 10.0 mi NW 11.5 mph 16.1 mph N/A   Overcast
12:33 PM 42.8 °F 36.6 °F 30.2 °F 61% 30.08 in 10.0 mi NW 11.5 mph 18.4 mph N/A   Overcast
12:53 PM 42.8 °F 36.6 °F 30.2 °F 61% 30.08 in 10.0 mi West 11.5 mph - N/A   Overcast
1:13 PM 42.8 °F 36.2 °F 30.2 °F 61% 30.08 in 10.0 mi WNW 12.7 mph 16.1 mph N/A   Overcast
1:33 PM 42.8 °F 36.2 °F 30.2 °F 61% 30.08 in 10.0 mi NNW 12.7 mph - N/A   Overcast
1:54 PM 42.8 °F 36.2 °F 30.2 °F 61% 30.07 in 10.0 mi NW 12.7 mph 17.3 mph N/A   Overcast
2:14 PM 42.8 °F 37.0 °F 30.2 °F 61% 30.07 in 10.0 mi NNW 10.4 mph - N/A   Overcast
2:33 PM 42.8 °F 37.5 °F 30.2 °F 61% 30.07 in 10.0 mi NW 9.2 mph - N/A   Overcast
2:53 PM 44.6 °F 39.7 °F 30.2 °F 57% 30.06 in 10.0 mi North 9.2 mph - N/A   Mostly Cloudy
3:13 PM 44.6 °F 39.2 °F 30.2 °F 57% 30.06 in 10.0 mi North 10.4 mph - N/A   Mostly Cloudy
3:33 PM 46.4 °F 41.5 °F 30.2 °F 53% 30.06 in 10.0 mi NW 10.4 mph - N/A   Mostly Cloudy
3:54 PM 46.4 °F 41.5 °F 30.2 °F 53% 30.05 in 10.0 mi North 10.4 mph - N/A   Mostly Cloudy
4:14 PM 46.4 °F 42.4 °F 30.2 °F 53% 30.04 in 10.0 mi NNW 8.1 mph - N/A   Scattered Clouds
4:34 PM 48.2 °F - 30.2 °F 50% 30.04 in 10.0 mi North 5.8 mph - N/A   Clear
4:53 PM 46.4 °F 43.5 °F 30.2 °F 53% 30.04 in 10.0 mi North 5.8 mph - N/A   Clear
5:14 PM 48.2 °F - 30.2 °F 50% 30.03 in 10.0 mi NE 8.1 mph - N/A   Clear
5:33 PM 46.4 °F 42.4 °F 30.2 °F 53% 30.02 in 10.0 mi NNE 8.1 mph - N/A   Clear
5:54 PM 48.2 °F - 30.2 °F 50% 30.02 in 10.0 mi NNE 9.2 mph - N/A   Clear
6:13 PM 48.2 °F - 32.0 °F 54% 30.02 in 10.0 mi NNE 9.2 mph - N/A   Clear
6:33 PM 46.4 °F 40.7 °F 32.0 °F 57% 30.01 in 10.0 mi NE 12.7 mph - N/A   Clear
6:54 PM 46.4 °F 42.4 °F 30.2 °F 53% 30.02 in 10.0 mi NNE 8.1 mph - N/A   Clear
7:13 PM 44.6 °F 40.7 °F 32.0 °F 61% 30.02 in 10.0 mi NE 6.9 mph - N/A   Clear
7:34 PM 42.8 °F 38.6 °F 32.0 °F 66% 30.02 in 10.0 mi NE 6.9 mph - N/A   Clear
7:53 PM 42.8 °F 38.6 °F 32.0 °F 66% 30.03 in 10.0 mi NE 6.9 mph - N/A   Clear
8:13 PM 39.2 °F 35.0 °F 30.2 °F 70% 30.03 in 10.0 mi NE 5.8 mph - N/A   Clear
8:33 PM 39.2 °F 34.2 °F 30.2 °F 70% 30.03 in 10.0 mi NE 6.9 mph - N/A   Clear
8:53 PM 39.2 °F 34.2 °F 30.2 °F 70% 30.03 in 10.0 mi ENE 6.9 mph - N/A   Clear
9:13 PM 37.4 °F 32.8 °F 30.2 °F 75% 30.04 in 10.0 mi ENE 5.8 mph - N/A   Clear
9:34 PM 39.2 °F 35.9 °F 30.2 °F 70% 30.05 in 10.0 mi ENE 4.6 mph - N/A   Clear
9:53 PM 39.2 °F 35.9 °F 30.2 °F 70% 30.05 in 10.0 mi ENE 4.6 mph - N/A   Clear
10:13 PM 39.2 °F 35.9 °F 30.2 °F 70% 30.06 in 10.0 mi ENE 4.6 mph - N/A   Clear
10:34 PM 37.4 °F 32.1 °F 30.2 °F 75% 30.06 in 10.0 mi NE 6.9 mph - N/A   Clear
10:53 PM 35.6 °F 29.9 °F 30.2 °F 81% 30.06 in 10.0 mi NE 6.9 mph - N/A   Clear
11:14 PM 35.6 °F 29.9 °F 30.2 °F 81% 30.06 in 10.0 mi NE 6.9 mph - N/A   Clear
11:33 PM 35.6 °F 29.2 °F 30.2 °F 81% 30.06 in 10.0 mi NE 8.1 mph - N/A   Clear
11:53 PM 35.6 °F 28.6 °F 30.2 °F 81% 30.05 in 10.0 mi NE 9.2 mph - N/A   Clear